sensor_id;sensor_type;location;lat;lon;timestamp;P1;durP1;ratioP1;P2;durP2;ratioP2
53961;SDS011;39868;53.398;6.564;2024-03-22T00:00:40;29.30;;;22.23;;
53961;SDS011;39868;53.398;6.564;2024-03-22T00:03:06;30.98;;;22.33;;
53961;SDS011;39868;53.398;6.564;2024-03-22T00:05:33;29.13;;;23.10;;
53961;SDS011;39868;53.398;6.564;2024-03-22T00:07:59;26.90;;;22.38;;
53961;SDS011;39868;53.398;6.564;2024-03-22T00:10:25;30.88;;;22.83;;
53961;SDS011;39868;53.398;6.564;2024-03-22T00:12:51;27.73;;;22.20;;
53961;SDS011;39868;53.398;6.564;2024-03-22T00:15:17;28.48;;;22.80;;
53961;SDS011;39868;53.398;6.564;2024-03-22T00:17:44;33.17;;;24.10;;
53961;SDS011;39868;53.398;6.564;2024-03-22T00:20:10;32.85;;;23.88;;
53961;SDS011;39868;53.398;6.564;2024-03-22T00:22:36;28.08;;;22.83;;
53961;SDS011;39868;53.398;6.564;2024-03-22T00:25:03;26.48;;;22.48;;
53961;SDS011;39868;53.398;6.564;2024-03-22T00:27:30;28.92;;;21.67;;
53961;SDS011;39868;53.398;6.564;2024-03-22T00:29:56;32.15;;;22.42;;
53961;SDS011;39868;53.398;6.564;2024-03-22T00:32:22;32.85;;;22.25;;
53961;SDS011;39868;53.398;6.564;2024-03-22T00:34:48;26.17;;;21.55;;
53961;SDS011;39868;53.398;6.564;2024-03-22T00:37:14;26.10;;;21.15;;
53961;SDS011;39868;53.398;6.564;2024-03-22T00:39:41;31.45;;;22.73;;
53961;SDS011;39868;53.398;6.564;2024-03-22T00:42:07;28.50;;;22.48;;
53961;SDS011;39868;53.398;6.564;2024-03-22T00:44:33;30.05;;;22.95;;
53961;SDS011;39868;53.398;6.564;2024-03-22T00:46:59;27.10;;;22.02;;
53961;SDS011;39868;53.398;6.564;2024-03-22T00:49:27;29.75;;;22.60;;
53961;SDS011;39868;53.398;6.564;2024-03-22T00:51:53;28.48;;;22.65;;
53961;SDS011;39868;53.398;6.564;2024-03-22T00:54:22;28.73;;;22.48;;
53961;SDS011;39868;53.398;6.564;2024-03-22T00:56:48;31.85;;;23.10;;
53961;SDS011;39868;53.398;6.564;2024-03-22T00:59:14;35.42;;;23.08;;
53961;SDS011;39868;53.398;6.564;2024-03-22T01:01:40;48.58;;;28.40;;
53961;SDS011;39868;53.398;6.564;2024-03-22T01:04:06;43.53;;;26.63;;
53961;SDS011;39868;53.398;6.564;2024-03-22T01:06:34;38.80;;;26.75;;
53961;SDS011;39868;53.398;6.564;2024-03-22T01:09:00;48.10;;;27.88;;
53961;SDS011;39868;53.398;6.564;2024-03-22T01:11:29;40.83;;;26.35;;
53961;SDS011;39868;53.398;6.564;2024-03-22T01:13:55;42.00;;;28.10;;
53961;SDS011;39868;53.398;6.564;2024-03-22T01:16:21;48.25;;;27.48;;
53961;SDS011;39868;53.398;6.564;2024-03-22T01:18:47;39.20;;;27.30;;
53961;SDS011;39868;53.398;6.564;2024-03-22T01:21:14;50.45;;;27.80;;
53961;SDS011;39868;53.398;6.564;2024-03-22T01:23:40;61.42;;;32.78;;
53961;SDS011;39868;53.398;6.564;2024-03-22T01:26:06;41.20;;;27.58;;
53961;SDS011;39868;53.398;6.564;2024-03-22T01:28:32;42.28;;;27.40;;
53961;SDS011;39868;53.398;6.564;2024-03-22T01:30:58;43.60;;;27.30;;
53961;SDS011;39868;53.398;6.564;2024-03-22T01:33:24;38.08;;;25.50;;
53961;SDS011;39868;53.398;6.564;2024-03-22T01:35:50;39.58;;;26.60;;
53961;SDS011;39868;53.398;6.564;2024-03-22T01:38:16;35.22;;;25.05;;
53961;SDS011;39868;53.398;6.564;2024-03-22T01:40:43;39.95;;;26.15;;
53961;SDS011;39868;53.398;6.564;2024-03-22T01:43:09;40.55;;;26.10;;
53961;SDS011;39868;53.398;6.564;2024-03-22T01:45:35;38.42;;;26.10;;
53961;SDS011;39868;53.398;6.564;2024-03-22T01:48:02;40.25;;;26.58;;
53961;SDS011;39868;53.398;6.564;2024-03-22T01:50:29;46.67;;;29.02;;
53961;SDS011;39868;53.398;6.564;2024-03-22T01:52:56;46.80;;;28.98;;
53961;SDS011;39868;53.398;6.564;2024-03-22T01:55:22;35.60;;;26.10;;
53961;SDS011;39868;53.398;6.564;2024-03-22T01:57:49;38.75;;;25.30;;
53961;SDS011;39868;53.398;6.564;2024-03-22T02:00:20;39.92;;;27.10;;
53961;SDS011;39868;53.398;6.564;2024-03-22T02:02:46;42.65;;;26.52;;
53961;SDS011;39868;53.398;6.564;2024-03-22T02:05:15;42.20;;;26.80;;
53961;SDS011;39868;53.398;6.564;2024-03-22T02:07:47;43.53;;;27.92;;
53961;SDS011;39868;53.398;6.564;2024-03-22T02:10:13;39.67;;;26.52;;
53961;SDS011;39868;53.398;6.564;2024-03-22T02:12:40;37.45;;;26.33;;
53961;SDS011;39868;53.398;6.564;2024-03-22T02:15:07;38.30;;;25.45;;
53961;SDS011;39868;53.398;6.564;2024-03-22T02:17:34;39.03;;;27.35;;
53961;SDS011;39868;53.398;6.564;2024-03-22T02:20:01;39.22;;;27.73;;
53961;SDS011;39868;53.398;6.564;2024-03-22T02:22:29;42.38;;;27.05;;
53961;SDS011;39868;53.398;6.564;2024-03-22T02:24:55;42.10;;;27.50;;
53961;SDS011;39868;53.398;6.564;2024-03-22T02:27:21;40.45;;;26.23;;
53961;SDS011;39868;53.398;6.564;2024-03-22T02:29:47;38.25;;;26.80;;
53961;SDS011;39868;53.398;6.564;2024-03-22T02:32:13;39.42;;;26.42;;
53961;SDS011;39868;53.398;6.564;2024-03-22T02:34:39;44.53;;;26.60;;
53961;SDS011;39868;53.398;6.564;2024-03-22T02:37:06;42.17;;;27.17;;
53961;SDS011;39868;53.398;6.564;2024-03-22T02:39:32;38.72;;;26.13;;
53961;SDS011;39868;53.398;6.564;2024-03-22T02:41:58;40.45;;;27.50;;
53961;SDS011;39868;53.398;6.564;2024-03-22T02:44:24;38.95;;;25.90;;
53961;SDS011;39868;53.398;6.564;2024-03-22T02:46:50;40.78;;;27.38;;
53961;SDS011;39868;53.398;6.564;2024-03-22T02:49:16;39.85;;;26.77;;
53961;SDS011;39868;53.398;6.564;2024-03-22T02:51:43;38.95;;;26.95;;
53961;SDS011;39868;53.398;6.564;2024-03-22T02:54:09;38.92;;;26.45;;
53961;SDS011;39868;53.398;6.564;2024-03-22T02:56:35;40.17;;;27.50;;
53961;SDS011;39868;53.398;6.564;2024-03-22T02:59:01;43.78;;;28.30;;
53961;SDS011;39868;53.398;6.564;2024-03-22T03:01:27;38.20;;;24.85;;
53961;SDS011;39868;53.398;6.564;2024-03-22T03:03:53;36.13;;;24.95;;
53961;SDS011;39868;53.398;6.564;2024-03-22T03:06:20;40.40;;;25.92;;
53961;SDS011;39868;53.398;6.564;2024-03-22T03:08:46;39.72;;;26.60;;
53961;SDS011;39868;53.398;6.564;2024-03-22T03:11:13;40.53;;;26.92;;
53961;SDS011;39868;53.398;6.564;2024-03-22T03:13:40;35.72;;;25.35;;
53961;SDS011;39868;53.398;6.564;2024-03-22T03:16:06;40.80;;;26.15;;
53961;SDS011;39868;53.398;6.564;2024-03-22T03:18:32;41.33;;;27.52;;
53961;SDS011;39868;53.398;6.564;2024-03-22T03:20:58;36.78;;;26.25;;
53961;SDS011;39868;53.398;6.564;2024-03-22T03:23:24;34.80;;;25.10;;
53961;SDS011;39868;53.398;6.564;2024-03-22T03:25:51;41.17;;;26.05;;
53961;SDS011;39868;53.398;6.564;2024-03-22T03:28:17;38.78;;;27.13;;
53961;SDS011;39868;53.398;6.564;2024-03-22T03:30:43;37.85;;;25.55;;
53961;SDS011;39868;53.398;6.564;2024-03-22T03:33:09;42.20;;;26.05;;
53961;SDS011;39868;53.398;6.564;2024-03-22T03:35:36;38.72;;;25.17;;
53961;SDS011;39868;53.398;6.564;2024-03-22T03:38:02;37.13;;;25.02;;
53961;SDS011;39868;53.398;6.564;2024-03-22T03:40:28;35.33;;;23.95;;
53961;SDS011;39868;53.398;6.564;2024-03-22T03:42:54;34.78;;;24.02;;
53961;SDS011;39868;53.398;6.564;2024-03-22T03:45:20;40.25;;;26.58;;
53961;SDS011;39868;53.398;6.564;2024-03-22T03:47:47;38.13;;;26.13;;
53961;SDS011;39868;53.398;6.564;2024-03-22T03:50:13;37.47;;;25.58;;
53961;SDS011;39868;53.398;6.564;2024-03-22T03:52:39;36.38;;;24.98;;
53961;SDS011;39868;53.398;6.564;2024-03-22T03:55:05;37.30;;;24.60;;
53961;SDS011;39868;53.398;6.564;2024-03-22T03:57:31;36.63;;;25.63;;
53961;SDS011;39868;53.398;6.564;2024-03-22T03:59:57;33.58;;;25.67;;
53961;SDS011;39868;53.398;6.564;2024-03-22T04:02:24;42.75;;;26.40;;
53961;SDS011;39868;53.398;6.564;2024-03-22T04:04:53;33.58;;;24.50;;
53961;SDS011;39868;53.398;6.564;2024-03-22T04:07:22;36.65;;;24.58;;
53961;SDS011;39868;53.398;6.564;2024-03-22T04:09:48;33.97;;;23.98;;
53961;SDS011;39868;53.398;6.564;2024-03-22T04:12:14;31.73;;;22.88;;
53961;SDS011;39868;53.398;6.564;2024-03-22T04:14:40;39.50;;;24.33;;
53961;SDS011;39868;53.398;6.564;2024-03-22T04:17:07;39.17;;;25.00;;
53961;SDS011;39868;53.398;6.564;2024-03-22T04:19:33;33.65;;;24.60;;
53961;SDS011;39868;53.398;6.564;2024-03-22T04:21:59;33.88;;;23.70;;
53961;SDS011;39868;53.398;6.564;2024-03-22T04:24:25;38.05;;;24.80;;
53961;SDS011;39868;53.398;6.564;2024-03-22T04:26:51;35.30;;;25.08;;
53961;SDS011;39868;53.398;6.564;2024-03-22T04:29:18;36.95;;;25.23;;
53961;SDS011;39868;53.398;6.564;2024-03-22T04:31:44;42.92;;;26.08;;
53961;SDS011;39868;53.398;6.564;2024-03-22T04:34:10;33.90;;;24.33;;
53961;SDS011;39868;53.398;6.564;2024-03-22T04:36:36;40.50;;;26.20;;
53961;SDS011;39868;53.398;6.564;2024-03-22T04:39:02;34.08;;;24.55;;
53961;SDS011;39868;53.398;6.564;2024-03-22T04:41:29;46.22;;;25.88;;
53961;SDS011;39868;53.398;6.564;2024-03-22T04:43:55;39.83;;;26.30;;
53961;SDS011;39868;53.398;6.564;2024-03-22T04:46:21;36.88;;;24.73;;
53961;SDS011;39868;53.398;6.564;2024-03-22T04:48:47;35.03;;;24.83;;
53961;SDS011;39868;53.398;6.564;2024-03-22T04:51:13;35.35;;;24.25;;
53961;SDS011;39868;53.398;6.564;2024-03-22T04:53:40;31.90;;;24.30;;
53961;SDS011;39868;53.398;6.564;2024-03-22T04:56:06;36.33;;;25.48;;
53961;SDS011;39868;53.398;6.564;2024-03-22T04:58:33;35.97;;;25.00;;
53961;SDS011;39868;53.398;6.564;2024-03-22T05:00:59;31.48;;;23.92;;
53961;SDS011;39868;53.398;6.564;2024-03-22T05:03:25;33.50;;;23.90;;
53961;SDS011;39868;53.398;6.564;2024-03-22T05:05:51;34.13;;;24.50;;
53961;SDS011;39868;53.398;6.564;2024-03-22T05:08:18;39.90;;;24.58;;
53961;SDS011;39868;53.398;6.564;2024-03-22T05:10:44;35.03;;;24.52;;
53961;SDS011;39868;53.398;6.564;2024-03-22T05:13:10;33.22;;;23.45;;
53961;SDS011;39868;53.398;6.564;2024-03-22T05:15:36;33.30;;;23.33;;
53961;SDS011;39868;53.398;6.564;2024-03-22T05:18:02;35.90;;;23.25;;
53961;SDS011;39868;53.398;6.564;2024-03-22T05:20:28;32.95;;;22.98;;
53961;SDS011;39868;53.398;6.564;2024-03-22T05:22:54;27.10;;;22.38;;
53961;SDS011;39868;53.398;6.564;2024-03-22T05:25:21;33.63;;;23.52;;
53961;SDS011;39868;53.398;6.564;2024-03-22T05:27:47;30.75;;;23.05;;
53961;SDS011;39868;53.398;6.564;2024-03-22T05:30:13;30.17;;;22.63;;
53961;SDS011;39868;53.398;6.564;2024-03-22T05:32:40;28.13;;;22.42;;
53961;SDS011;39868;53.398;6.564;2024-03-22T05:35:06;31.83;;;23.17;;
53961;SDS011;39868;53.398;6.564;2024-03-22T05:37:33;31.80;;;22.40;;
53961;SDS011;39868;53.398;6.564;2024-03-22T05:40:00;29.02;;;21.45;;
53961;SDS011;39868;53.398;6.564;2024-03-22T05:42:27;27.15;;;21.27;;
53961;SDS011;39868;53.398;6.564;2024-03-22T05:44:54;29.77;;;21.73;;
53961;SDS011;39868;53.398;6.564;2024-03-22T05:47:21;32.55;;;22.77;;
53961;SDS011;39868;53.398;6.564;2024-03-22T05:49:47;34.92;;;22.65;;
53961;SDS011;39868;53.398;6.564;2024-03-22T05:52:13;29.92;;;22.02;;
53961;SDS011;39868;53.398;6.564;2024-03-22T05:54:39;31.10;;;21.05;;
53961;SDS011;39868;53.398;6.564;2024-03-22T05:57:06;25.70;;;20.92;;
53961;SDS011;39868;53.398;6.564;2024-03-22T05:59:33;22.87;;;19.63;;
53961;SDS011;39868;53.398;6.564;2024-03-22T06:01:59;29.52;;;21.67;;
53961;SDS011;39868;53.398;6.564;2024-03-22T06:04:26;27.27;;;21.73;;
53961;SDS011;39868;53.398;6.564;2024-03-22T06:06:53;25.80;;;21.50;;
53961;SDS011;39868;53.398;6.564;2024-03-22T06:09:19;25.45;;;20.75;;
53961;SDS011;39868;53.398;6.564;2024-03-22T06:12:05;26.75;;;20.75;;
53961;SDS011;39868;53.398;6.564;2024-03-22T06:14:32;25.02;;;20.17;;
53961;SDS011;39868;53.398;6.564;2024-03-22T06:16:58;32.85;;;21.45;;
53961;SDS011;39868;53.398;6.564;2024-03-22T06:19:25;25.67;;;20.90;;
53961;SDS011;39868;53.398;6.564;2024-03-22T06:21:51;24.83;;;19.15;;
53961;SDS011;39868;53.398;6.564;2024-03-22T06:24:17;22.33;;;19.00;;
53961;SDS011;39868;53.398;6.564;2024-03-22T06:26:44;26.15;;;18.13;;
53961;SDS011;39868;53.398;6.564;2024-03-22T06:29:10;19.35;;;17.27;;
53961;SDS011;39868;53.398;6.564;2024-03-22T06:31:36;19.40;;;16.70;;
53961;SDS011;39868;53.398;6.564;2024-03-22T06:34:02;23.58;;;17.98;;
53961;SDS011;39868;53.398;6.564;2024-03-22T06:36:29;19.95;;;17.73;;
53961;SDS011;39868;53.398;6.564;2024-03-22T06:38:59;20.90;;;16.75;;
53961;SDS011;39868;53.398;6.564;2024-03-22T06:41:25;19.10;;;16.65;;
53961;SDS011;39868;53.398;6.564;2024-03-22T06:43:53;23.80;;;17.48;;
53961;SDS011;39868;53.398;6.564;2024-03-22T06:46:19;20.20;;;16.63;;
53961;SDS011;39868;53.398;6.564;2024-03-22T06:48:45;17.83;;;16.00;;
53961;SDS011;39868;53.398;6.564;2024-03-22T06:51:12;17.92;;;15.60;;
53961;SDS011;39868;53.398;6.564;2024-03-22T06:53:38;15.77;;;14.27;;
53961;SDS011;39868;53.398;6.564;2024-03-22T06:56:04;16.00;;;14.40;;
53961;SDS011;39868;53.398;6.564;2024-03-22T06:58:31;17.40;;;15.50;;
53961;SDS011;39868;53.398;6.564;2024-03-22T07:00:57;16.35;;;14.82;;
53961;SDS011;39868;53.398;6.564;2024-03-22T07:03:23;15.88;;;14.27;;
53961;SDS011;39868;53.398;6.564;2024-03-22T07:05:49;17.40;;;15.18;;
53961;SDS011;39868;53.398;6.564;2024-03-22T07:08:16;15.95;;;14.35;;
53961;SDS011;39868;53.398;6.564;2024-03-22T07:10:42;16.88;;;15.20;;
53961;SDS011;39868;53.398;6.564;2024-03-22T07:13:09;16.27;;;14.82;;
53961;SDS011;39868;53.398;6.564;2024-03-22T07:15:35;16.75;;;15.25;;
53961;SDS011;39868;53.398;6.564;2024-03-22T07:18:01;16.02;;;14.45;;
53961;SDS011;39868;53.398;6.564;2024-03-22T07:20:30;16.88;;;14.98;;
53961;SDS011;39868;53.398;6.564;2024-03-22T07:22:56;16.73;;;15.02;;
53961;SDS011;39868;53.398;6.564;2024-03-22T07:25:22;17.10;;;15.30;;
53961;SDS011;39868;53.398;6.564;2024-03-22T07:27:48;16.35;;;14.70;;
53961;SDS011;39868;53.398;6.564;2024-03-22T07:30:15;16.52;;;15.02;;
53961;SDS011;39868;53.398;6.564;2024-03-22T07:32:41;16.40;;;14.90;;
53961;SDS011;39868;53.398;6.564;2024-03-22T07:35:07;16.20;;;14.73;;
53961;SDS011;39868;53.398;6.564;2024-03-22T07:37:34;15.85;;;14.45;;
53961;SDS011;39868;53.398;6.564;2024-03-22T07:40:01;16.50;;;15.07;;
53961;SDS011;39868;53.398;6.564;2024-03-22T07:42:28;15.73;;;14.52;;
53961;SDS011;39868;53.398;6.564;2024-03-22T07:44:54;15.70;;;14.60;;
53961;SDS011;39868;53.398;6.564;2024-03-22T07:47:20;17.35;;;15.73;;
53961;SDS011;39868;53.398;6.564;2024-03-22T07:49:46;17.05;;;15.70;;
53961;SDS011;39868;53.398;6.564;2024-03-22T07:52:12;17.25;;;15.95;;
53961;SDS011;39868;53.398;6.564;2024-03-22T07:54:39;17.90;;;16.50;;
53961;SDS011;39868;53.398;6.564;2024-03-22T07:57:05;17.30;;;15.82;;
53961;SDS011;39868;53.398;6.564;2024-03-22T07:59:31;17.27;;;16.05;;
53961;SDS011;39868;53.398;6.564;2024-03-22T08:01:57;15.93;;;14.70;;
53961;SDS011;39868;53.398;6.564;2024-03-22T08:04:23;16.52;;;15.13;;
53961;SDS011;39868;53.398;6.564;2024-03-22T08:06:50;15.60;;;14.40;;
53961;SDS011;39868;53.398;6.564;2024-03-22T08:09:16;16.10;;;14.65;;
53961;SDS011;39868;53.398;6.564;2024-03-22T08:11:44;14.88;;;13.88;;
53961;SDS011;39868;53.398;6.564;2024-03-22T08:14:10;15.45;;;14.35;;
53961;SDS011;39868;53.398;6.564;2024-03-22T08:16:36;15.02;;;13.93;;
53961;SDS011;39868;53.398;6.564;2024-03-22T08:19:02;15.02;;;13.80;;
53961;SDS011;39868;53.398;6.564;2024-03-22T08:21:28;14.07;;;12.98;;
53961;SDS011;39868;53.398;6.564;2024-03-22T08:23:54;13.95;;;12.88;;
53961;SDS011;39868;53.398;6.564;2024-03-22T08:26:20;13.88;;;12.80;;
53961;SDS011;39868;53.398;6.564;2024-03-22T08:28:47;14.60;;;13.30;;
53961;SDS011;39868;53.398;6.564;2024-03-22T08:31:13;13.80;;;12.95;;
53961;SDS011;39868;53.398;6.564;2024-03-22T08:33:40;14.45;;;13.32;;
53961;SDS011;39868;53.398;6.564;2024-03-22T08:36:07;13.90;;;12.82;;
53961;SDS011;39868;53.398;6.564;2024-03-22T08:38:33;14.95;;;13.55;;
53961;SDS011;39868;53.398;6.564;2024-03-22T08:40:59;13.75;;;12.95;;
53961;SDS011;39868;53.398;6.564;2024-03-22T08:43:25;14.50;;;13.40;;
53961;SDS011;39868;53.398;6.564;2024-03-22T08:45:53;14.15;;;13.15;;
53961;SDS011;39868;53.398;6.564;2024-03-22T08:48:19;14.60;;;13.40;;
53961;SDS011;39868;53.398;6.564;2024-03-22T08:50:45;13.98;;;13.05;;
53961;SDS011;39868;53.398;6.564;2024-03-22T08:53:11;13.75;;;12.80;;
53961;SDS011;39868;53.398;6.564;2024-03-22T08:55:38;13.10;;;12.25;;
53961;SDS011;39868;53.398;6.564;2024-03-22T08:58:04;12.60;;;11.80;;
53961;SDS011;39868;53.398;6.564;2024-03-22T09:00:30;12.70;;;12.00;;
53961;SDS011;39868;53.398;6.564;2024-03-22T09:02:56;12.48;;;11.70;;
53961;SDS011;39868;53.398;6.564;2024-03-22T09:05:22;13.18;;;12.27;;
53961;SDS011;39868;53.398;6.564;2024-03-22T09:07:49;13.07;;;12.25;;
53961;SDS011;39868;53.398;6.564;2024-03-22T09:10:18;12.68;;;11.88;;
53961;SDS011;39868;53.398;6.564;2024-03-22T09:12:44;12.93;;;12.13;;
53961;SDS011;39868;53.398;6.564;2024-03-22T09:15:11;12.35;;;11.57;;
53961;SDS011;39868;53.398;6.564;2024-03-22T09:17:37;12.82;;;11.93;;
53961;SDS011;39868;53.398;6.564;2024-03-22T09:20:04;12.77;;;11.98;;
53961;SDS011;39868;53.398;6.564;2024-03-22T09:22:33;12.32;;;11.52;;
53961;SDS011;39868;53.398;6.564;2024-03-22T09:24:59;12.80;;;12.00;;
53961;SDS011;39868;53.398;6.564;2024-03-22T09:27:25;12.63;;;11.88;;
53961;SDS011;39868;53.398;6.564;2024-03-22T09:29:51;12.85;;;12.15;;
53961;SDS011;39868;53.398;6.564;2024-03-22T09:32:18;12.35;;;11.75;;
53961;SDS011;39868;53.398;6.564;2024-03-22T09:34:44;12.48;;;11.77;;
53961;SDS011;39868;53.398;6.564;2024-03-22T09:37:11;12.63;;;11.93;;
53961;SDS011;39868;53.398;6.564;2024-03-22T09:39:37;12.73;;;12.00;;
53961;SDS011;39868;53.398;6.564;2024-03-22T09:42:03;13.23;;;12.43;;
53961;SDS011;39868;53.398;6.564;2024-03-22T09:44:32;13.65;;;12.85;;
53961;SDS011;39868;53.398;6.564;2024-03-22T09:46:59;13.32;;;12.57;;
53961;SDS011;39868;53.398;6.564;2024-03-22T09:49:26;13.32;;;12.63;;
53961;SDS011;39868;53.398;6.564;2024-03-22T09:51:52;14.63;;;13.63;;
53961;SDS011;39868;53.398;6.564;2024-03-22T09:54:23;13.80;;;13.00;;
53961;SDS011;39868;53.398;6.564;2024-03-22T09:56:52;14.43;;;13.63;;
53961;SDS011;39868;53.398;6.564;2024-03-22T09:59:20;15.90;;;15.00;;
53961;SDS011;39868;53.398;6.564;2024-03-22T10:01:47;15.45;;;14.65;;
53961;SDS011;39868;53.398;6.564;2024-03-22T10:04:14;16.02;;;14.93;;
53961;SDS011;39868;53.398;6.564;2024-03-22T10:06:46;15.23;;;14.32;;
53961;SDS011;39868;53.398;6.564;2024-03-22T10:09:13;13.32;;;12.63;;
53961;SDS011;39868;53.398;6.564;2024-03-22T10:11:41;15.60;;;14.70;;
53961;SDS011;39868;53.398;6.564;2024-03-22T10:14:07;15.43;;;14.55;;
53961;SDS011;39868;53.398;6.564;2024-03-22T10:16:36;15.27;;;14.38;;
53961;SDS011;39868;53.398;6.564;2024-03-22T10:19:02;15.20;;;14.30;;
53961;SDS011;39868;53.398;6.564;2024-03-22T10:21:29;15.00;;;14.10;;
53961;SDS011;39868;53.398;6.564;2024-03-22T10:23:56;15.57;;;14.60;;
53961;SDS011;39868;53.398;6.564;2024-03-22T10:26:24;15.85;;;14.95;;
53961;SDS011;39868;53.398;6.564;2024-03-22T10:28:51;17.10;;;16.10;;
53961;SDS011;39868;53.398;6.564;2024-03-22T10:31:17;16.70;;;15.63;;
53961;SDS011;39868;53.398;6.564;2024-03-22T10:33:46;18.13;;;16.92;;
53961;SDS011;39868;53.398;6.564;2024-03-22T10:36:22;16.95;;;15.80;;
53961;SDS011;39868;53.398;6.564;2024-03-22T10:38:52;16.90;;;15.80;;
53961;SDS011;39868;53.398;6.564;2024-03-22T10:41:21;17.25;;;15.93;;
53961;SDS011;39868;53.398;6.564;2024-03-22T10:43:47;16.90;;;15.80;;
53961;SDS011;39868;53.398;6.564;2024-03-22T10:46:13;16.48;;;15.45;;
53961;SDS011;39868;53.398;6.564;2024-03-22T10:48:41;16.88;;;15.68;;
53961;SDS011;39868;53.398;6.564;2024-03-22T10:51:10;16.33;;;15.10;;
53961;SDS011;39868;53.398;6.564;2024-03-22T10:53:37;15.77;;;14.65;;
53961;SDS011;39868;53.398;6.564;2024-03-22T10:56:04;15.98;;;14.98;;
53961;SDS011;39868;53.398;6.564;2024-03-22T10:58:32;15.50;;;14.60;;
53961;SDS011;39868;53.398;6.564;2024-03-22T11:00:59;16.27;;;14.98;;
53961;SDS011;39868;53.398;6.564;2024-03-22T11:03:26;15.88;;;14.68;;
53961;SDS011;39868;53.398;6.564;2024-03-22T11:05:58;15.25;;;14.15;;
53961;SDS011;39868;53.398;6.564;2024-03-22T11:08:29;15.48;;;13.88;;
53961;SDS011;39868;53.398;6.564;2024-03-22T11:11:09;14.07;;;13.10;;
53961;SDS011;39868;53.398;6.564;2024-03-22T11:13:38;14.18;;;13.38;;
53961;SDS011;39868;53.398;6.564;2024-03-22T11:16:09;14.52;;;13.60;;
53961;SDS011;39868;53.398;6.564;2024-03-22T11:18:35;14.70;;;13.65;;
53961;SDS011;39868;53.398;6.564;2024-03-22T11:21:08;14.55;;;13.45;;
53961;SDS011;39868;53.398;6.564;2024-03-22T11:23:35;15.07;;;13.88;;
53961;SDS011;39868;53.398;6.564;2024-03-22T11:26:03;14.85;;;13.95;;
53961;SDS011;39868;53.398;6.564;2024-03-22T11:28:30;15.95;;;14.55;;
53961;SDS011;39868;53.398;6.564;2024-03-22T11:30:56;14.77;;;13.88;;
53961;SDS011;39868;53.398;6.564;2024-03-22T11:33:23;15.27;;;14.18;;
53961;SDS011;39868;53.398;6.564;2024-03-22T11:35:49;15.88;;;13.90;;
53961;SDS011;39868;53.398;6.564;2024-03-22T11:38:16;15.85;;;14.60;;
53961;SDS011;39868;53.398;6.564;2024-03-22T11:40:44;14.95;;;13.90;;
53961;SDS011;39868;53.398;6.564;2024-03-22T11:43:12;15.00;;;13.70;;
53961;SDS011;39868;53.398;6.564;2024-03-22T11:45:40;15.00;;;13.98;;
53961;SDS011;39868;53.398;6.564;2024-03-22T11:48:08;14.93;;;13.80;;
53961;SDS011;39868;53.398;6.564;2024-03-22T11:50:36;15.48;;;14.38;;
53961;SDS011;39868;53.398;6.564;2024-03-22T11:53:04;14.43;;;13.55;;
53961;SDS011;39868;53.398;6.564;2024-03-22T11:55:31;15.48;;;14.32;;
53961;SDS011;39868;53.398;6.564;2024-03-22T11:57:58;16.08;;;14.48;;
53961;SDS011;39868;53.398;6.564;2024-03-22T12:00:24;15.50;;;14.13;;
53961;SDS011;39868;53.398;6.564;2024-03-22T12:02:52;15.80;;;14.57;;
53961;SDS011;39868;53.398;6.564;2024-03-22T12:05:20;15.88;;;14.45;;
53961;SDS011;39868;53.398;6.564;2024-03-22T12:07:46;15.80;;;14.27;;
53961;SDS011;39868;53.398;6.564;2024-03-22T12:10:12;16.83;;;15.45;;
53961;SDS011;39868;53.398;6.564;2024-03-22T12:12:39;17.00;;;15.43;;
53961;SDS011;39868;53.398;6.564;2024-03-22T12:15:05;17.10;;;15.48;;
53961;SDS011;39868;53.398;6.564;2024-03-22T12:17:33;16.98;;;15.35;;
53961;SDS011;39868;53.398;6.564;2024-03-22T12:20:01;16.95;;;15.40;;
53961;SDS011;39868;53.398;6.564;2024-03-22T12:22:29;15.50;;;14.50;;
53961;SDS011;39868;53.398;6.564;2024-03-22T12:24:56;15.85;;;14.75;;
53961;SDS011;39868;53.398;6.564;2024-03-22T12:27:22;16.33;;;15.02;;
53961;SDS011;39868;53.398;6.564;2024-03-22T12:29:48;15.95;;;14.70;;
53961;SDS011;39868;53.398;6.564;2024-03-22T12:32:15;16.15;;;15.15;;
53961;SDS011;39868;53.398;6.564;2024-03-22T12:34:41;15.88;;;14.82;;
53961;SDS011;39868;53.398;6.564;2024-03-22T12:37:07;16.45;;;15.23;;
53961;SDS011;39868;53.398;6.564;2024-03-22T12:39:33;15.43;;;14.52;;
53961;SDS011;39868;53.398;6.564;2024-03-22T12:42:00;15.30;;;14.40;;
53961;SDS011;39868;53.398;6.564;2024-03-22T12:44:27;15.43;;;14.45;;
53961;SDS011;39868;53.398;6.564;2024-03-22T12:46:53;15.57;;;14.38;;
53961;SDS011;39868;53.398;6.564;2024-03-22T12:49:20;15.27;;;14.02;;
53961;SDS011;39868;53.398;6.564;2024-03-22T12:51:46;15.32;;;14.05;;
53961;SDS011;39868;53.398;6.564;2024-03-22T12:54:13;14.95;;;14.15;;
53961;SDS011;39868;53.398;6.564;2024-03-22T12:56:43;15.60;;;14.50;;
53961;SDS011;39868;53.398;6.564;2024-03-22T12:59:09;15.20;;;14.20;;
53961;SDS011;39868;53.398;6.564;2024-03-22T13:01:35;15.27;;;14.40;;
53961;SDS011;39868;53.398;6.564;2024-03-22T13:04:02;15.57;;;14.45;;
53961;SDS011;39868;53.398;6.564;2024-03-22T13:06:28;15.27;;;14.27;;
53961;SDS011;39868;53.398;6.564;2024-03-22T13:08:55;16.40;;;15.02;;
53961;SDS011;39868;53.398;6.564;2024-03-22T13:11:21;15.57;;;14.50;;
53961;SDS011;39868;53.398;6.564;2024-03-22T13:13:47;16.10;;;15.10;;
53961;SDS011;39868;53.398;6.564;2024-03-22T13:16:14;15.30;;;14.27;;
53961;SDS011;39868;53.398;6.564;2024-03-22T13:18:41;16.63;;;15.25;;
53961;SDS011;39868;53.398;6.564;2024-03-22T13:21:08;16.27;;;14.80;;
53961;SDS011;39868;53.398;6.564;2024-03-22T13:23:35;16.13;;;14.98;;
53961;SDS011;39868;53.398;6.564;2024-03-22T13:26:05;15.85;;;14.73;;
53961;SDS011;39868;53.398;6.564;2024-03-22T13:28:32;16.85;;;15.27;;
53961;SDS011;39868;53.398;6.564;2024-03-22T13:31:01;16.35;;;14.82;;
53961;SDS011;39868;53.398;6.564;2024-03-22T13:33:34;17.58;;;15.75;;
53961;SDS011;39868;53.398;6.564;2024-03-22T13:36:01;16.45;;;14.75;;
53961;SDS011;39868;53.398;6.564;2024-03-22T13:38:28;15.73;;;14.45;;
53961;SDS011;39868;53.398;6.564;2024-03-22T13:40:54;15.77;;;14.27;;
53961;SDS011;39868;53.398;6.564;2024-03-22T13:43:21;15.77;;;14.60;;
53961;SDS011;39868;53.398;6.564;2024-03-22T13:45:51;16.55;;;15.05;;
53961;SDS011;39868;53.398;6.564;2024-03-22T13:48:20;15.50;;;14.40;;
53961;SDS011;39868;53.398;6.564;2024-03-22T13:50:53;15.90;;;14.32;;
53961;SDS011;39868;53.398;6.564;2024-03-22T13:53:21;15.32;;;14.02;;
53961;SDS011;39868;53.398;6.564;2024-03-22T13:55:51;15.70;;;14.38;;
53961;SDS011;39868;53.398;6.564;2024-03-22T13:58:20;15.63;;;14.40;;
53961;SDS011;39868;53.398;6.564;2024-03-22T14:00:46;16.45;;;15.18;;
53961;SDS011;39868;53.398;6.564;2024-03-22T14:03:13;16.50;;;15.20;;
53961;SDS011;39868;53.398;6.564;2024-03-22T14:05:40;17.02;;;15.38;;
53961;SDS011;39868;53.398;6.564;2024-03-22T14:08:06;16.27;;;14.65;;
53961;SDS011;39868;53.398;6.564;2024-03-22T14:10:33;16.77;;;15.45;;
53961;SDS011;39868;53.398;6.564;2024-03-22T14:12:59;16.55;;;14.88;;
53961;SDS011;39868;53.398;6.564;2024-03-22T14:15:25;15.23;;;14.23;;
53961;SDS011;39868;53.398;6.564;2024-03-22T14:17:54;14.68;;;13.73;;